sensor_id;sensor_type;location;lat;lon;timestamp;temperature;humidity
68215;DHT22;55036;52.138;5.236;2022-08-19T00:01:32;19.60;75.60
68215;DHT22;55036;52.138;5.236;2022-08-19T00:04:07;19.60;75.70
68215;DHT22;55036;52.138;5.236;2022-08-19T00:06:36;19.60;75.60
68215;DHT22;55036;52.138;5.236;2022-08-19T00:09:05;19.50;75.60
68215;DHT22;55036;52.138;5.236;2022-08-19T00:11:33;19.50;75.60
68215;DHT22;55036;52.138;5.236;2022-08-19T00:14:03;19.50;75.60
68215;DHT22;55036;52.138;5.236;2022-08-19T00:16:30;19.50;75.70
68215;DHT22;55036;52.138;5.236;2022-08-19T00:18:57;19.50;75.60
68215;DHT22;55036;52.138;5.236;2022-08-19T00:21:25;19.50;75.60
68215;DHT22;55036;52.138;5.236;2022-08-19T00:23:54;19.50;75.50
68215;DHT22;55036;52.138;5.236;2022-08-19T00:26:26;19.50;75.50
68215;DHT22;55036;52.138;5.236;2022-08-19T00:28:53;19.30;75.50
68215;DHT22;55036;52.138;5.236;2022-08-19T00:31:20;19.40;75.50
68215;DHT22;55036;52.138;5.236;2022-08-19T00:33:47;19.40;75.50
68215;DHT22;55036;52.138;5.236;2022-08-19T00:36:17;19.30;75.50
68215;DHT22;55036;52.138;5.236;2022-08-19T00:38:44;19.30;75.40
68215;DHT22;55036;52.138;5.236;2022-08-19T00:41:13;19.30;75.50
68215;DHT22;55036;52.138;5.236;2022-08-19T00:43:41;19.20;75.60
68215;DHT22;55036;52.138;5.236;2022-08-19T00:46:08;19.20;75.50
68215;DHT22;55036;52.138;5.236;2022-08-19T00:48:35;19.20;75.50
68215;DHT22;55036;52.138;5.236;2022-08-19T00:51:04;19.10;75.30
68215;DHT22;55036;52.138;5.236;2022-08-19T00:53:32;19.10;75.50
68215;DHT22;55036;52.138;5.236;2022-08-19T00:56:01;19.10;75.60
68215;DHT22;55036;52.138;5.236;2022-08-19T00:58:31;19.10;75.60
68215;DHT22;55036;52.138;5.236;2022-08-19T01:01:00;19.10;75.70
68215;DHT22;55036;52.138;5.236;2022-08-19T01:03:27;19.00;75.80
68215;DHT22;55036;52.138;5.236;2022-08-19T01:06:14;19.00;75.60
68215;DHT22;55036;52.138;5.236;2022-08-19T01:08:45;19.00;75.70
68215;DHT22;55036;52.138;5.236;2022-08-19T01:11:15;19.00;75.70
68215;DHT22;55036;52.138;5.236;2022-08-19T01:13:43;18.90;75.70
68215;DHT22;55036;52.138;5.236;2022-08-19T01:16:17;18.90;75.90
68215;DHT22;55036;52.138;5.236;2022-08-19T01:18:45;18.90;76.00
68215;DHT22;55036;52.138;5.236;2022-08-19T01:21:44;18.90;75.90
68215;DHT22;55036;52.138;5.236;2022-08-19T01:24:13;18.80;75.70
68215;DHT22;55036;52.138;5.236;2022-08-19T01:26:42;18.80;75.80
68215;DHT22;55036;52.138;5.236;2022-08-19T01:29:10;18.80;75.80
68215;DHT22;55036;52.138;5.236;2022-08-19T01:31:37;18.80;75.90
68215;DHT22;55036;52.138;5.236;2022-08-19T01:34:06;18.80;75.90
68215;DHT22;55036;52.138;5.236;2022-08-19T01:36:41;18.80;75.90
68215;DHT22;55036;52.138;5.236;2022-08-19T01:39:12;18.80;76.00
68215;DHT22;55036;52.138;5.236;2022-08-19T01:41:39;18.80;75.90
68215;DHT22;55036;52.138;5.236;2022-08-19T01:44:08;18.70;75.80
68215;DHT22;55036;52.138;5.236;2022-08-19T01:46:46;18.70;75.80
68215;DHT22;55036;52.138;5.236;2022-08-19T01:49:15;18.70;75.90
68215;DHT22;55036;52.138;5.236;2022-08-19T01:51:43;18.60;75.70
68215;DHT22;55036;52.138;5.236;2022-08-19T01:54:12;18.60;75.80
68215;DHT22;55036;52.138;5.236;2022-08-19T01:56:50;18.50;75.90
68215;DHT22;55036;52.138;5.236;2022-08-19T01:59:19;18.50;76.10
68215;DHT22;55036;52.138;5.236;2022-08-19T02:01:47;18.50;76.10
68215;DHT22;55036;52.138;5.236;2022-08-19T02:04:14;18.50;76.10
68215;DHT22;55036;52.138;5.236;2022-08-19T02:06:41;18.50;76.00
68215;DHT22;55036;52.138;5.236;2022-08-19T02:09:08;18.50;75.90
68215;DHT22;55036;52.138;5.236;2022-08-19T02:11:36;18.50;76.10
68215;DHT22;55036;52.138;5.236;2022-08-19T02:14:05;18.50;76.20
68215;DHT22;55036;52.138;5.236;2022-08-19T02:16:33;18.40;76.00
68215;DHT22;55036;52.138;5.236;2022-08-19T02:19:00;18.40;75.80
68215;DHT22;55036;52.138;5.236;2022-08-19T02:21:28;18.40;75.90
68215;DHT22;55036;52.138;5.236;2022-08-19T02:23:55;18.30;75.90
68215;DHT22;55036;52.138;5.236;2022-08-19T02:26:22;18.30;76.00
68215;DHT22;55036;52.138;5.236;2022-08-19T02:28:49;18.30;76.30
68215;DHT22;55036;52.138;5.236;2022-08-19T02:31:19;18.30;76.40
68215;DHT22;55036;52.138;5.236;2022-08-19T02:33:47;18.30;76.80
68215;DHT22;55036;52.138;5.236;2022-08-19T02:36:15;18.30;76.40
68215;DHT22;55036;52.138;5.236;2022-08-19T02:38:46;18.30;76.30
68215;DHT22;55036;52.138;5.236;2022-08-19T02:41:24;18.30;76.50
68215;DHT22;55036;52.138;5.236;2022-08-19T02:43:53;18.30;76.50
68215;DHT22;55036;52.138;5.236;2022-08-19T02:46:40;18.30;76.70
68215;DHT22;55036;52.138;5.236;2022-08-19T02:49:08;18.30;76.60
68215;DHT22;55036;52.138;5.236;2022-08-19T02:51:35;18.30;76.40
68215;DHT22;55036;52.138;5.236;2022-08-19T02:54:04;18.30;76.40
68215;DHT22;55036;52.138;5.236;2022-08-19T02:56:33;18.30;76.40
68215;DHT22;55036;52.138;5.236;2022-08-19T02:59:00;18.20;76.30
68215;DHT22;55036;52.138;5.236;2022-08-19T03:01:31;18.20;76.30
68215;DHT22;55036;52.138;5.236;2022-08-19T03:04:01;18.20;76.60
68215;DHT22;55036;52.138;5.236;2022-08-19T03:06:28;18.10;76.70
68215;DHT22;55036;52.138;5.236;2022-08-19T03:08:56;18.10;76.80
68215;DHT22;55036;52.138;5.236;2022-08-19T03:11:29;18.10;76.90
68215;DHT22;55036;52.138;5.236;2022-08-19T03:13:57;18.10;76.90
68215;DHT22;55036;52.138;5.236;2022-08-19T03:16:26;18.10;77.10
68215;DHT22;55036;52.138;5.236;2022-08-19T03:18:55;18.10;77.00
68215;DHT22;55036;52.138;5.236;2022-08-19T03:21:25;18.10;76.80
68215;DHT22;55036;52.138;5.236;2022-08-19T03:23:56;18.10;77.00
68215;DHT22;55036;52.138;5.236;2022-08-19T03:26:23;18.10;77.00
68215;DHT22;55036;52.138;5.236;2022-08-19T03:28:50;18.10;76.80
68215;DHT22;55036;52.138;5.236;2022-08-19T03:31:25;18.00;76.80
68215;DHT22;55036;52.138;5.236;2022-08-19T03:34:19;18.00;77.10
68215;DHT22;55036;52.138;5.236;2022-08-19T03:36:47;18.00;77.20
68215;DHT22;55036;52.138;5.236;2022-08-19T03:39:14;18.00;77.10
68215;DHT22;55036;52.138;5.236;2022-08-19T03:41:43;18.00;77.20
68215;DHT22;55036;52.138;5.236;2022-08-19T03:44:15;18.00;77.40
68215;DHT22;55036;52.138;5.236;2022-08-19T03:46:46;17.90;77.50
68215;DHT22;55036;52.138;5.236;2022-08-19T03:49:13;17.90;77.50
68215;DHT22;55036;52.138;5.236;2022-08-19T03:51:41;17.90;77.50
68215;DHT22;55036;52.138;5.236;2022-08-19T03:54:12;17.90;77.60
68215;DHT22;55036;52.138;5.236;2022-08-19T03:56:41;17.90;77.60
68215;DHT22;55036;52.138;5.236;2022-08-19T03:59:11;17.90;77.50
68215;DHT22;55036;52.138;5.236;2022-08-19T04:01:38;17.90;77.50
68215;DHT22;55036;52.138;5.236;2022-08-19T04:04:05;17.90;77.40
68215;DHT22;55036;52.138;5.236;2022-08-19T04:06:34;17.90;77.40
68215;DHT22;55036;52.138;5.236;2022-08-19T04:09:08;17.90;77.40
68215;DHT22;55036;52.138;5.236;2022-08-19T04:11:38;17.90;77.40
68215;DHT22;55036;52.138;5.236;2022-08-19T04:14:19;17.90;77.30
68215;DHT22;55036;52.138;5.236;2022-08-19T04:16:48;17.90;77.20
68215;DHT22;55036;52.138;5.236;2022-08-19T04:19:16;17.90;77.20
68215;DHT22;55036;52.138;5.236;2022-08-19T04:21:45;17.80;77.20
68215;DHT22;55036;52.138;5.236;2022-08-19T04:24:13;17.80;77.10
68215;DHT22;55036;52.138;5.236;2022-08-19T04:26:40;17.70;77.10
68215;DHT22;55036;52.138;5.236;2022-08-19T04:29:10;17.70;77.30
68215;DHT22;55036;52.138;5.236;2022-08-19T04:31:39;17.70;77.40
68215;DHT22;55036;52.138;5.236;2022-08-19T04:34:10;17.70;77.60
68215;DHT22;55036;52.138;5.236;2022-08-19T04:36:39;17.60;77.60
68215;DHT22;55036;52.138;5.236;2022-08-19T04:39:09;17.60;77.60
68215;DHT22;55036;52.138;5.236;2022-08-19T04:41:37;17.60;77.70
68215;DHT22;55036;52.138;5.236;2022-08-19T04:44:23;17.60;77.60
68215;DHT22;55036;52.138;5.236;2022-08-19T04:46:50;17.60;77.70
68215;DHT22;55036;52.138;5.236;2022-08-19T04:49:20;17.60;77.60
68215;DHT22;55036;52.138;5.236;2022-08-19T04:51:50;17.60;77.70
68215;DHT22;55036;52.138;5.236;2022-08-19T04:54:18;17.60;77.60
68215;DHT22;55036;52.138;5.236;2022-08-19T04:57:06;17.60;77.70
68215;DHT22;55036;52.138;5.236;2022-08-19T04:59:34;17.60;77.80
68215;DHT22;55036;52.138;5.236;2022-08-19T05:02:02;17.70;77.80
68215;DHT22;55036;52.138;5.236;2022-08-19T05:04:29;17.70;77.80
68215;DHT22;55036;52.138;5.236;2022-08-19T05:06:59;17.70;77.80
68215;DHT22;55036;52.138;5.236;2022-08-19T05:09:29;17.70;77.90
68215;DHT22;55036;52.138;5.236;2022-08-19T05:12:16;17.70;77.70
68215;DHT22;55036;52.138;5.236;2022-08-19T05:14:43;17.80;77.80
68215;DHT22;55036;52.138;5.236;2022-08-19T05:17:12;17.80;77.90
68215;DHT22;55036;52.138;5.236;2022-08-19T05:20:00;17.90;78.90
68215;DHT22;55036;52.138;5.236;2022-08-19T05:22:46;17.90;77.80
68215;DHT22;55036;52.138;5.236;2022-08-19T05:25:16;17.90;77.90
68215;DHT22;55036;52.138;5.236;2022-08-19T05:27:45;18.10;78.20
68215;DHT22;55036;52.138;5.236;2022-08-19T05:30:12;18.30;78.30
68215;DHT22;55036;52.138;5.236;2022-08-19T05:32:40;18.40;78.20
68215;DHT22;55036;52.138;5.236;2022-08-19T05:35:07;18.60;78.10
68215;DHT22;55036;52.138;5.236;2022-08-19T05:37:34;18.60;78.80
68215;DHT22;55036;52.138;5.236;2022-08-19T05:40:01;18.70;77.80
68215;DHT22;55036;52.138;5.236;2022-08-19T05:42:28;18.70;77.80
68215;DHT22;55036;52.138;5.236;2022-08-19T05:44:55;18.80;77.90
68215;DHT22;55036;52.138;5.236;2022-08-19T05:47:22;18.80;77.90
68215;DHT22;55036;52.138;5.236;2022-08-19T05:49:49;18.90;78.00
68215;DHT22;55036;52.138;5.236;2022-08-19T05:52:17;19.00;78.20
68215;DHT22;55036;52.138;5.236;2022-08-19T05:54:46;19.10;78.30
68215;DHT22;55036;52.138;5.236;2022-08-19T05:57:17;19.20;78.30
68215;DHT22;55036;52.138;5.236;2022-08-19T05:59:44;19.40;78.40
68215;DHT22;55036;52.138;5.236;2022-08-19T06:02:26;19.60;78.40
68215;DHT22;55036;52.138;5.236;2022-08-19T06:04:53;19.80;78.30
68215;DHT22;55036;52.138;5.236;2022-08-19T06:07:20;20.10;78.20
68215;DHT22;55036;52.138;5.236;2022-08-19T06:09:47;20.30;77.90
68215;DHT22;55036;52.138;5.236;2022-08-19T06:12:28;20.50;77.70
68215;DHT22;55036;52.138;5.236;2022-08-19T06:14:58;20.70;77.10
68215;DHT22;55036;52.138;5.236;2022-08-19T06:17:27;20.80;76.70
68215;DHT22;55036;52.138;5.236;2022-08-19T06:19:56;20.60;77.50
68215;DHT22;55036;52.138;5.236;2022-08-19T06:22:25;20.50;76.50
68215;DHT22;55036;52.138;5.236;2022-08-19T06:24:52;20.40;76.60
68215;DHT22;55036;52.138;5.236;2022-08-19T06:27:20;20.30;76.90
68215;DHT22;55036;52.138;5.236;2022-08-19T06:29:48;20.30;77.30
68215;DHT22;55036;52.138;5.236;2022-08-19T06:32:16;20.30;77.50
68215;DHT22;55036;52.138;5.236;2022-08-19T06:34:43;20.20;78.00
68215;DHT22;55036;52.138;5.236;2022-08-19T06:37:11;20.20;78.30
68215;DHT22;55036;52.138;5.236;2022-08-19T06:39:39;20.20;78.40
68215;DHT22;55036;52.138;5.236;2022-08-19T06:42:07;20.30;78.70
68215;DHT22;55036;52.138;5.236;2022-08-19T06:44:40;20.30;78.70
68215;DHT22;55036;52.138;5.236;2022-08-19T06:47:10;20.30;79.50
68215;DHT22;55036;52.138;5.236;2022-08-19T06:49:48;20.30;79.50
68215;DHT22;55036;52.138;5.236;2022-08-19T06:52:15;20.30;79.30
68215;DHT22;55036;52.138;5.236;2022-08-19T06:54:42;20.40;79.10
68215;DHT22;55036;52.138;5.236;2022-08-19T06:57:23;20.60;79.00
68215;DHT22;55036;52.138;5.236;2022-08-19T06:59:50;20.70;79.10
68215;DHT22;55036;52.138;5.236;2022-08-19T07:02:17;20.80;78.80
68215;DHT22;55036;52.138;5.236;2022-08-19T07:04:49;20.90;78.60
68215;DHT22;55036;52.138;5.236;2022-08-19T07:07:19;21.00;78.50
68215;DHT22;55036;52.138;5.236;2022-08-19T07:09:48;21.10;78.20
68215;DHT22;55036;52.138;5.236;2022-08-19T07:12:27;21.20;77.90
68215;DHT22;55036;52.138;5.236;2022-08-19T07:14:55;21.20;77.90
68215;DHT22;55036;52.138;5.236;2022-08-19T07:17:23;21.30;77.60
68215;DHT22;55036;52.138;5.236;2022-08-19T07:19:50;21.40;77.50
68215;DHT22;55036;52.138;5.236;2022-08-19T07:22:21;21.40;77.20
68215;DHT22;55036;52.138;5.236;2022-08-19T07:24:50;21.50;77.10
68215;DHT22;55036;52.138;5.236;2022-08-19T07:27:18;21.50;76.70
68215;DHT22;55036;52.138;5.236;2022-08-19T07:29:54;21.50;75.60
68215;DHT22;55036;52.138;5.236;2022-08-19T07:32:24;21.40;76.50
68215;DHT22;55036;52.138;5.236;2022-08-19T07:34:54;21.50;76.30
68215;DHT22;55036;52.138;5.236;2022-08-19T07:37:22;21.60;76.30
68215;DHT22;55036;52.138;5.236;2022-08-19T07:39:49;21.60;75.90
68215;DHT22;55036;52.138;5.236;2022-08-19T07:42:16;21.60;76.10
68215;DHT22;55036;52.138;5.236;2022-08-19T07:44:43;21.60;75.90
68215;DHT22;55036;52.138;5.236;2022-08-19T07:47:16;21.70;76.00
68215;DHT22;55036;52.138;5.236;2022-08-19T07:50:08;21.80;75.90
68215;DHT22;55036;52.138;5.236;2022-08-19T07:52:37;21.80;75.50
68215;DHT22;55036;52.138;5.236;2022-08-19T07:55:07;21.80;75.50
68215;DHT22;55036;52.138;5.236;2022-08-19T07:57:54;21.90;75.50
68215;DHT22;55036;52.138;5.236;2022-08-19T08:00:21;21.90;75.30
68215;DHT22;55036;52.138;5.236;2022-08-19T08:02:50;22.00;75.00
68215;DHT22;55036;52.138;5.236;2022-08-19T08:05:17;22.00;74.10
68215;DHT22;55036;52.138;5.236;2022-08-19T08:08:08;22.00;74.70
68215;DHT22;55036;52.138;5.236;2022-08-19T08:10:53;22.00;74.50
68215;DHT22;55036;52.138;5.236;2022-08-19T08:13:23;22.10;74.50
68215;DHT22;55036;52.138;5.236;2022-08-19T08:15:52;22.10;74.20
68215;DHT22;55036;52.138;5.236;2022-08-19T08:18:21;22.20;74.00
68215;DHT22;55036;52.138;5.236;2022-08-19T08:20:54;22.30;74.40
68215;DHT22;55036;52.138;5.236;2022-08-19T08:23:21;22.30;73.30
68215;DHT22;55036;52.138;5.236;2022-08-19T08:25:56;22.40;73.70
68215;DHT22;55036;52.138;5.236;2022-08-19T08:28:25;22.50;72.20
68215;DHT22;55036;52.138;5.236;2022-08-19T08:30:54;22.50;72.80
68215;DHT22;55036;52.138;5.236;2022-08-19T08:33:24;22.60;72.20
68215;DHT22;55036;52.138;5.236;2022-08-19T08:36:07;22.70;72.50
68215;DHT22;55036;52.138;5.236;2022-08-19T08:38:35;22.80;72.10
68215;DHT22;55036;52.138;5.236;2022-08-19T08:44:03;23.00;72.30
68215;DHT22;55036;52.138;5.236;2022-08-19T08:46:44;23.20;71.80
68215;DHT22;55036;52.138;5.236;2022-08-19T08:49:31;23.30;71.40
68215;DHT22;55036;52.138;5.236;2022-08-19T08:52:04;23.60;71.40
68215;DHT22;55036;52.138;5.236;2022-08-19T08:54:38;23.70;70.40
68215;DHT22;55036;52.138;5.236;2022-08-19T08:57:29;23.80;69.80
68215;DHT22;55036;52.138;5.236;2022-08-19T09:00:15;23.90;69.40
68215;DHT22;55036;52.138;5.236;2022-08-19T09:02:44;24.00;67.30
68215;DHT22;55036;52.138;5.236;2022-08-19T09:05:18;24.00;67.90
68215;DHT22;55036;52.138;5.236;2022-08-19T09:08:08;23.90;68.20
68215;DHT22;55036;52.138;5.236;2022-08-19T09:10:49;23.90;68.10
68215;DHT22;55036;52.138;5.236;2022-08-19T09:13:35;23.90;67.90
68215;DHT22;55036;52.138;5.236;2022-08-19T09:16:07;24.00;68.00
68215;DHT22;55036;52.138;5.236;2022-08-19T09:18:47;24.20;68.20
68215;DHT22;55036;52.138;5.236;2022-08-19T09:21:15;24.20;67.30
68215;DHT22;55036;52.138;5.236;2022-08-19T09:23:43;24.10;67.30
68215;DHT22;55036;52.138;5.236;2022-08-19T09:26:13;24.20;67.50
68215;DHT22;55036;52.138;5.236;2022-08-19T09:28:44;24.20;67.20
68215;DHT22;55036;52.138;5.236;2022-08-19T09:31:20;24.20;67.10
68215;DHT22;55036;52.138;5.236;2022-08-19T09:33:48;24.40;66.80
68215;DHT22;55036;52.138;5.236;2022-08-19T09:36:19;24.40;65.80
68215;DHT22;55036;52.138;5.236;2022-08-19T09:39:00;24.40;66.10
68215;DHT22;55036;52.138;5.236;2022-08-19T09:41:28;24.40;66.00
68215;DHT22;55036;52.138;5.236;2022-08-19T09:43:56;24.40;65.70
68215;DHT22;55036;52.138;5.236;2022-08-19T09:46:26;24.20;65.60
68215;DHT22;55036;52.138;5.236;2022-08-19T09:48:54;24.30;65.80
68215;DHT22;55036;52.138;5.236;2022-08-19T09:51:23;24.20;65.60
68215;DHT22;55036;52.138;5.236;2022-08-19T09:53:51;24.20;65.80
68215;DHT22;55036;52.138;5.236;2022-08-19T09:56:21;24.20;65.90
68215;DHT22;55036;52.138;5.236;2022-08-19T09:58:50;24.20;65.80
68215;DHT22;55036;52.138;5.236;2022-08-19T10:01:20;24.20;66.10
68215;DHT22;55036;52.138;5.236;2022-08-19T10:03:49;24.40;66.10
68215;DHT22;55036;52.138;5.236;2022-08-19T10:06:18;24.40;65.90
68215;DHT22;55036;52.138;5.236;2022-08-19T10:09:09;24.50;65.70
68215;DHT22;55036;52.138;5.236;2022-08-19T10:11:40;24.40;65.30
68215;DHT22;55036;52.138;5.236;2022-08-19T10:14:18;24.40;65.70
68215;DHT22;55036;52.138;5.236;2022-08-19T10:16:48;24.30;65.70
68215;DHT22;55036;52.138;5.236;2022-08-19T10:19:15;24.30;65.90
68215;DHT22;55036;52.138;5.236;2022-08-19T10:21:53;24.40;66.20
68215;DHT22;55036;52.138;5.236;2022-08-19T10:24:26;24.50;65.70
68215;DHT22;55036;52.138;5.236;2022-08-19T10:26:54;24.80;65.90
68215;DHT22;55036;52.138;5.236;2022-08-19T10:29:29;24.90;65.90
68215;DHT22;55036;52.138;5.236;2022-08-19T10:32:03;24.90;65.90
68215;DHT22;55036;52.138;5.236;2022-08-19T10:34:37;24.80;64.70
68215;DHT22;55036;52.138;5.236;2022-08-19T10:37:15;24.80;64.70
68215;DHT22;55036;52.138;5.236;2022-08-19T10:39:49;24.50;65.40
68215;DHT22;55036;52.138;5.236;2022-08-19T10:42:17;24.40;65.70
68215;DHT22;55036;52.138;5.236;2022-08-19T10:44:45;24.70;66.40
68215;DHT22;55036;52.138;5.236;2022-08-19T10:47:13;25.00;66.90
68215;DHT22;55036;52.138;5.236;2022-08-19T10:49:50;25.20;65.50
68215;DHT22;55036;52.138;5.236;2022-08-19T10:52:43;25.20;64.60
68215;DHT22;55036;52.138;5.236;2022-08-19T10:55:23;25.40;64.60
68215;DHT22;55036;52.138;5.236;2022-08-19T10:58:13;25.60;64.40
68215;DHT22;55036;52.138;5.236;2022-08-19T11:00:41;25.90;65.00
68215;DHT22;55036;52.138;5.236;2022-08-19T11:03:10;26.10;64.10
68215;DHT22;55036;52.138;5.236;2022-08-19T11:05:36;26.20;63.60
68215;DHT22;55036;52.138;5.236;2022-08-19T11:08:06;26.20;62.60
68215;DHT22;55036;52.138;5.236;2022-08-19T11:10:50;26.00;62.40
68215;DHT22;55036;52.138;5.236;2022-08-19T11:13:17;25.70;62.50
68215;DHT22;55036;52.138;5.236;2022-08-19T11:15:44;25.50;62.80
68215;DHT22;55036;52.138;5.236;2022-08-19T11:18:13;25.40;63.70
68215;DHT22;55036;52.138;5.236;2022-08-19T11:20:40;25.30;63.80
68215;DHT22;55036;52.138;5.236;2022-08-19T11:23:07;25.30;63.90
68215;DHT22;55036;52.138;5.236;2022-08-19T11:25:34;25.50;64.50
68215;DHT22;55036;52.138;5.236;2022-08-19T11:28:01;25.60;64.10
68215;DHT22;55036;52.138;5.236;2022-08-19T11:30:28;25.70;63.50
68215;DHT22;55036;52.138;5.236;2022-08-19T11:32:55;25.70;63.50
68215;DHT22;55036;52.138;5.236;2022-08-19T11:35:22;25.60;63.70
68215;DHT22;55036;52.138;5.236;2022-08-19T11:37:49;25.70;63.60
68215;DHT22;55036;52.138;5.236;2022-08-19T11:40:16;25.70;63.20
68215;DHT22;55036;52.138;5.236;2022-08-19T11:42:44;25.60;63.10
68215;DHT22;55036;52.138;5.236;2022-08-19T11:45:24;25.50;63.10
68215;DHT22;55036;52.138;5.236;2022-08-19T11:47:52;25.30;63.50
68215;DHT22;55036;52.138;5.236;2022-08-19T11:50:19;25.30;63.60
68215;DHT22;55036;52.138;5.236;2022-08-19T11:52:47;25.20;63.70
68215;DHT22;55036;52.138;5.236;2022-08-19T11:55:16;25.10;63.80
68215;DHT22;55036;52.138;5.236;2022-08-19T11:57:42;24.90;64.60
68215;DHT22;55036;52.138;5.236;2022-08-19T12:00:10;24.80;64.80
68215;DHT22;55036;52.138;5.236;2022-08-19T12:02:39;24.80;65.50
68215;DHT22;55036;52.138;5.236;2022-08-19T12:05:07;24.60;66.40
68215;DHT22;55036;52.138;5.236;2022-08-19T12:07:39;24.60;66.90
68215;DHT22;55036;52.138;5.236;2022-08-19T12:10:06;24.60;66.70
68215;DHT22;55036;52.138;5.236;2022-08-19T12:12:33;24.50;67.10
68215;DHT22;55036;52.138;5.236;2022-08-19T12:15:00;24.50;67.30
68215;DHT22;55036;52.138;5.236;2022-08-19T12:17:27;24.40;67.50
68215;DHT22;55036;52.138;5.236;2022-08-19T12:19:55;24.40;67.60
68215;DHT22;55036;52.138;5.236;2022-08-19T12:22:22;24.30;67.60
68215;DHT22;55036;52.138;5.236;2022-08-19T12:24:48;24.30;67.70
68215;DHT22;55036;52.138;5.236;2022-08-19T12:27:18;24.30;67.90
68215;DHT22;55036;52.138;5.236;2022-08-19T12:29:57;24.30;68.20
68215;DHT22;55036;52.138;5.236;2022-08-19T12:32:26;24.40;68.80
68215;DHT22;55036;52.138;5.236;2022-08-19T12:34:53;24.50;69.20
68215;DHT22;55036;52.138;5.236;2022-08-19T12:37:20;24.60;69.40
68215;DHT22;55036;52.138;5.236;2022-08-19T12:39:47;24.70;69.20
68215;DHT22;55036;52.138;5.236;2022-08-19T12:42:15;24.60;69.20
68215;DHT22;55036;52.138;5.236;2022-08-19T12:44:42;24.60;69.30
68215;DHT22;55036;52.138;5.236;2022-08-19T12:47:12;24.60;69.10
68215;DHT22;55036;52.138;5.236;2022-08-19T12:49:41;24.60;69.70
68215;DHT22;55036;52.138;5.236;2022-08-19T12:52:24;24.50;69.80
68215;DHT22;55036;52.138;5.236;2022-08-19T12:54:53;24.40;71.10
68215;DHT22;55036;52.138;5.236;2022-08-19T12:57:26;24.20;69.90
68215;DHT22;55036;52.138;5.236;2022-08-19T13:00:10;24.30;70.20
68215;DHT22;55036;52.138;5.236;2022-08-19T13:02:39;24.20;69.30
68215;DHT22;55036;52.138;5.236;2022-08-19T13:05:09;24.30;70.30
68215;DHT22;55036;52.138;5.236;2022-08-19T13:07:38;24.30;70.70
68215;DHT22;55036;52.138;5.236;2022-08-19T13:10:10;24.30;70.40
68215;DHT22;55036;52.138;5.236;2022-08-19T13:12:38;24.40;70.60
68215;DHT22;55036;52.138;5.236;2022-08-19T13:15:05;24.40;70.80
68215;DHT22;55036;52.138;5.236;2022-08-19T13:17:37;24.50;71.00
68215;DHT22;55036;52.138;5.236;2022-08-19T13:20:07;24.60;70.90
68215;DHT22;55036;52.138;5.236;2022-08-19T13:22:34;24.70;70.80
68215;DHT22;55036;52.138;5.236;2022-08-19T13:25:05;24.80;70.90
68215;DHT22;55036;52.138;5.236;2022-08-19T13:27:33;24.80;70.90
68215;DHT22;55036;52.138;5.236;2022-08-19T13:30:00;24.70;70.80
68215;DHT22;55036;52.138;5.236;2022-08-19T13:32:46;24.80;70.60
68215;DHT22;55036;52.138;5.236;2022-08-19T13:35:32;24.90;70.80
68215;DHT22;55036;52.138;5.236;2022-08-19T13:37:59;25.00;70.80
68215;DHT22;55036;52.138;5.236;2022-08-19T13:40:27;25.00;70.30
68215;DHT22;55036;52.138;5.236;2022-08-19T13:42:56;25.00;70.10
68215;DHT22;55036;52.138;5.236;2022-08-19T13:45:25;25.00;69.50
68215;DHT22;55036;52.138;5.236;2022-08-19T13:47:55;24.90;69.50
68215;DHT22;55036;52.138;5.236;2022-08-19T13:50:28;24.90;69.60
68215;DHT22;55036;52.138;5.236;2022-08-19T13:52:55;24.80;69.50
68215;DHT22;55036;52.138;5.236;2022-08-19T13:55:23;24.80;70.30
68215;DHT22;55036;52.138;5.236;2022-08-19T13:57:55;24.80;70.00
68215;DHT22;55036;52.138;5.236;2022-08-19T14:00:25;24.90;70.30
68215;DHT22;55036;52.138;5.236;2022-08-19T14:02:54;25.00;70.20
68215;DHT22;55036;52.138;5.236;2022-08-19T14:05:22;25.10;70.20
68215;DHT22;55036;52.138;5.236;2022-08-19T14:07:50;25.10;69.90
68215;DHT22;55036;52.138;5.236;2022-08-19T14:10:17;25.20;69.90
68215;DHT22;55036;52.138;5.236;2022-08-19T14:12:44;25.20;69.90
68215;DHT22;55036;52.138;5.236;2022-08-19T14:15:12;25.30;69.80
68215;DHT22;55036;52.138;5.236;2022-08-19T14:17:41;25.20;69.80
68215;DHT22;55036;52.138;5.236;2022-08-19T14:20:10;25.00;70.10
68215;DHT22;55036;52.138;5.236;2022-08-19T14:22:45;24.80;70.30
68215;DHT22;55036;52.138;5.236;2022-08-19T14:25:16;24.80;70.30
68215;DHT22;55036;52.138;5.236;2022-08-19T14:27:43;24.60;70.80
68215;DHT22;55036;52.138;5.236;2022-08-19T14:30:13;24.70;71.00
68215;DHT22;55036;52.138;5.236;2022-08-19T14:32:41;24.60;71.00
68215;DHT22;55036;52.138;5.236;2022-08-19T14:35:10;24.60;71.20
68215;DHT22;55036;52.138;5.236;2022-08-19T14:37:39;24.60;71.60
68215;DHT22;55036;52.138;5.236;2022-08-19T14:40:15;24.60;72.80
68215;DHT22;55036;52.138;5.236;2022-08-19T14:42:43;24.60;71.90
68215;DHT22;55036;52.138;5.236;2022-08-19T14:45:11;24.60;72.50
68215;DHT22;55036;52.138;5.236;2022-08-19T14:47:38;24.50;72.80
68215;DHT22;55036;52.138;5.236;2022-08-19T14:50:09;24.60;73.20
68215;DHT22;55036;52.138;5.236;2022-08-19T14:52:45;24.40;73.50
68215;DHT22;55036;52.138;5.236;2022-08-19T14:55:13;24.40;74.30
68215;DHT22;55036;52.138;5.236;2022-08-19T14:57:43;24.40;73.40
68215;DHT22;55036;52.138;5.236;2022-08-19T15:00:11;24.30;73.10
68215;DHT22;55036;52.138;5.236;2022-08-19T15:02:43;24.40;73.30
68215;DHT22;55036;52.138;5.236;2022-08-19T15:05:12;24.40;72.50
68215;DHT22;55036;52.138;5.236;2022-08-19T15:07:39;24.60;72.10
68215;DHT22;55036;52.138;5.236;2022-08-19T15:10:09;24.50;72.60
68215;DHT22;55036;52.138;5.236;2022-08-19T15:12:37;24.60;72.60
68215;DHT22;55036;52.138;5.236;2022-08-19T15:15:10;24.60;72.00
68215;DHT22;55036;52.138;5.236;2022-08-19T15:17:40;24.50;72.00
68215;DHT22;55036;52.138;5.236;2022-08-19T15:20:16;24.40;72.00
68215;DHT22;55036;52.138;5.236;2022-08-19T15:22:43;24.60;71.70
68215;DHT22;55036;52.138;5.236;2022-08-19T15:25:13;24.70;71.80
68215;DHT22;55036;52.138;5.236;2022-08-19T15:27:40;24.80;71.70
68215;DHT22;55036;52.138;5.236;2022-08-19T15:30:09;25.00;71.70
68215;DHT22;55036;52.138;5.236;2022-08-19T15:32:37;25.10;71.40
68215;DHT22;55036;52.138;5.236;2022-08-19T15:35:06;25.10;70.70
68215;DHT22;55036;52.138;5.236;2022-08-19T15:37:33;25.00;70.20
68215;DHT22;55036;52.138;5.236;2022-08-19T15:40:04;25.00;70.20
68215;DHT22;55036;52.138;5.236;2022-08-19T15:42:32;24.90;70.10
68215;DHT22;55036;52.138;5.236;2022-08-19T15:44:59;24.80;70.00
68215;DHT22;55036;52.138;5.236;2022-08-19T15:47:31;24.70;69.90
68215;DHT22;55036;52.138;5.236;2022-08-19T15:50:08;24.70;69.90
68215;DHT22;55036;52.138;5.236;2022-08-19T15:52:44;24.70;70.00
68215;DHT22;55036;52.138;5.236;2022-08-19T15:55:17;24.70;70.20